Time;durP1;ratioP1;P1;durP2;ratioP2;P2;SDS_P1;SDS_P2;PMS_P1;PMS_P2;Temp;Humidity;BMP_temperature;BMP_pressure;BME280_temperature;BME280_humidity;BME280_pressure;Samples;Min_cycle;Max_cycle;Signal;HPM_P1;HPM_P2
2022/10/21 00:00:51;;;;;;;45.45;23.88;;;;;;;;;;7391687;19;20158;-76
2022/10/21 00:03:17;;;;;;;42.80;23.10;;;;;;;;;;7393636;19;20006;-75
2022/10/21 00:05:43;;;;;;;45.33;23.23;;;;;;;;;;7396059;19;19998;-75
2022/10/21 00:08:08;;;;;;;38.45;22.83;;;;;;;;;;7391647;19;19997;-76
2022/10/21 00:10:33;;;;;;;37.92;22.65;;;;;;;;;;7388766;19;20472;-76
2022/10/21 00:12:59;;;;;;;39.53;22.42;;;;;;;;;;7389587;19;20024;-75
2022/10/21 00:15:24;;;;;;;37.65;22.45;;;;;;;;;;7390836;19;20066;-77
2022/10/21 00:17:49;;;;;;;39.03;22.42;;;;;;;;;;7390679;19;19998;-76
2022/10/21 00:20:15;;;;;;;45.63;23.63;;;;;;;;;;7390645;19;20337;-76
2022/10/21 00:22:41;;;;;;;46.30;23.20;;;;;;;;;;7391737;19;19999;-75
2022/10/21 00:25:07;;;;;;;35.28;21.60;;;;;;;;;;7388250;19;19998;-76
2022/10/21 00:27:32;;;;;;;37.40;22.08;;;;;;;;;;7388910;19;20058;-76
2022/10/21 00:29:58;;;;;;;37.88;22.58;;;;;;;;;;7389662;19;20012;-76
2022/10/21 00:32:23;;;;;;;37.58;21.42;;;;;;;;;;7386846;19;19998;-76
2022/10/21 00:34:48;;;;;;;33.85;20.77;;;;;;;;;;7389560;19;19994;-76
2022/10/21 00:37:14;;;;;;;36.17;21.13;;;;;;;;;;7389690;19;20006;-77
2022/10/21 00:39:39;;;;;;;36.92;21.60;;;;;;;;;;7389315;19;20014;-76
2022/10/21 00:42:09;;;;;;;38.00;22.35;;;;;;;;;;7384485;19;20019;-76
2022/10/21 00:44:36;;;;;;;41.17;21.27;;;;;;;;;;7387827;19;20062;-76
2022/10/21 00:47:06;;;;;;;37.38;21.02;;;;;;;;;;7389341;19;20019;-77
2022/10/21 00:49:41;;;;;;;37.15;20.67;;;;;;;;;;7390183;19;19998;-76
2022/10/21 00:52:12;;;;;;;40.30;21.30;;;;;;;;;;7385718;19;20102;-77
2022/10/21 00:54:37;;;;;;;;;;;;;;;;;;7389301;19;20006;-76
2022/10/21 00:57:03;;;;;;;37.55;19.42;;;;;;;;;;7388851;19;19910;-76
2022/10/21 00:59:34;;;;;;;43.45;22.17;;;;;;;;;;7387220;19;20003;-75
2022/10/21 01:02:00;;;;;;;41.92;22.02;;;;;;;;;;7385766;19;20010;-76
2022/10/21 01:04:25;;;;;;;38.17;21.45;;;;;;;;;;7387445;19;20002;-76
2022/10/21 01:06:50;;;;;;;39.75;21.30;;;;;;;;;;7387175;19;19991;-77
2022/10/21 01:09:17;;;;;;;41.03;20.55;;;;;;;;;;7388823;19;19998;-77
2022/10/21 01:11:45;;;;;;;43.67;21.45;;;;;;;;;;7384845;19;19999;-77
2022/10/21 01:14:25;;;;;;;36.33;21.23;;;;;;;;;;7384091;19;19998;-76
2022/10/21 01:17:06;;;;;;;41.50;22.47;;;;;;;;;;7382645;19;20116;-78
2022/10/21 01:19:51;;;;;;;36.60;20.58;;;;;;;;;;7385258;19;20018;-77
2022/10/21 01:22:46;;;;;;;52.13;22.73;;;;;;;;;;7383303;19;20059;-76
2022/10/21 01:25:33;;;;;;;51.97;22.65;;;;;;;;;;7383674;19;19999;-77
2022/10/21 01:28:25;;;;;;;48.78;22.58;;;;;;;;;;7386384;19;19999;-78
2022/10/21 01:30:55;;;;;;;47.70;21.60;;;;;;;;;;7386985;19;20002;-77
2022/10/21 01:33:39;;;;;;;45.00;22.20;;;;;;;;;;7387020;19;19999;-76
2022/10/21 01:36:33;;;;;;;42.22;21.65;;;;;;;;;;7388075;19;20054;-78
2022/10/21 01:39:22;;;;;;;43.22;21.55;;;;;;;;;;7388101;19;20034;-78
2022/10/21 01:41:56;;;;;;;56.90;22.73;;;;;;;;;;7385538;19;19999;-76
2022/10/21 01:44:32;;;;;;;264.15;29.00;;;;;;;;;;7386965;19;20002;-77
2022/10/21 01:47:16;;;;;;;45.00;22.70;;;;;;;;;;7387953;19;20013;-77
2022/10/21 01:49:57;;;;;;;47.40;23.20;;;;;;;;;;7387883;19;20003;-77
2022/10/21 01:52:23;;;;;;;50.80;20.63;;;;;;;;;;7386760;19;20043;-77
2022/10/21 01:55:00;;;;;;;46.95;21.63;;;;;;;;;;7387873;19;19995;-75
2022/10/21 01:57:30;;;;;;;52.50;22.33;;;;;;;;;;7387705;19;19999;-77
2022/10/21 01:59:57;;;;;;;49.10;22.30;;;;;;;;;;7387389;19;20054;-77
2022/10/21 02:02:27;;;;;;;56.08;20.83;;;;;;;;;;7384579;19;20011;-77
2022/10/21 02:04:54;;;;;;;48.83;21.70;;;;;;;;;;7386232;19;20080;-77
2022/10/21 02:07:20;;;;;;;55.03;21.65;;;;;;;;;;7389928;19;19994;-77
2022/10/21 02:09:45;;;;;;;103.13;23.48;;;;;;;;;;7392262;19;20023;-77
2022/10/21 02:12:11;;;;;;;44.60;22.67;;;;;;;;;;7390865;19;20200;-77
2022/10/21 02:14:47;;;;;;;44.50;22.83;;;;;;;;;;7391156;19;20002;-77
2022/10/21 02:17:16;;;;;;;61.17;22.13;;;;;;;;;;7387984;19;20010;-77
2022/10/21 02:19:42;;;;;;;42.70;21.20;;;;;;;;;;7390719;19;20007;-77
2022/10/21 02:22:09;;;;;;;40.20;21.73;;;;;;;;;;7393841;19;20002;-77
2022/10/21 02:24:50;;;;;;;50.65;23.70;;;;;;;;;;7393203;19;19999;-76
2022/10/21 02:27:15;;;;;;;46.40;21.73;;;;;;;;;;7393188;19;20708;-76
2022/10/21 02:29:42;;;;;;;82.43;21.02;;;;;;;;;;7393269;19;19995;-77
2022/10/21 02:32:16;;;;;;;48.22;20.73;;;;;;;;;;7393230;19;20002;-77
2022/10/21 02:35:09;;;;;;;112.13;23.60;;;;;;;;;;7394549;19;20014;-77
2022/10/21 02:38:09;;;;;;;46.53;21.17;;;;;;;;;;7394738;19;20354;-76
2022/10/21 02:40:49;;;;;;;53.63;20.80;;;;;;;;;;7391723;19;20007;-77
2022/10/21 02:43:26;;;;;;;44.45;20.10;;;;;;;;;;7393306;19;20004;-77
2022/10/21 02:45:54;;;;;;;46.45;20.10;;;;;;;;;;7391652;19;20353;-76
2022/10/21 02:48:19;;;;;;;36.08;20.17;;;;;;;;;;7393477;19;19994;-76
2022/10/21 02:50:44;;;;;;;39.47;19.42;;;;;;;;;;7392031;19;20543;-76
2022/10/21 02:53:11;;;;;;;56.60;20.10;;;;;;;;;;7391984;19;20002;-77
2022/10/21 02:55:37;;;;;;;46.67;19.38;;;;;;;;;;7393136;19;20001;-77
2022/10/21 02:58:02;;;;;;;44.35;20.55;;;;;;;;;;7392887;19;19999;-76
2022/10/21 03:00:27;;;;;;;42.55;19.73;;;;;;;;;;7392186;19;20001;-78
2022/10/21 03:02:53;;;;;;;53.58;20.35;;;;;;;;;;7391579;19;19999;-77
2022/10/21 03:05:18;;;;;;;46.95;19.58;;;;;;;;;;7390474;19;20491;-76
2022/10/21 03:07:43;;;;;;;90.32;22.10;;;;;;;;;;7392746;19;20001;-77
2022/10/21 03:10:09;;;;;;;38.00;19.15;;;;;;;;;;7390101;19;20657;-76
2022/10/21 03:12:34;;;;;;;68.32;19.65;;;;;;;;;;7391501;19;20001;-76
2022/10/21 03:14:59;;;;;;;43.53;18.50;;;;;;;;;;7390816;19;20283;-77
2022/10/21 03:17:25;;;;;;;91.25;21.55;;;;;;;;;;7394822;19;20074;-77
2022/10/21 03:19:50;;;;;;;47.80;19.45;;;;;;;;;;7391621;19;20002;-78
2022/10/21 03:22:15;;;;;;;39.33;19.33;;;;;;;;;;7390400;19;19999;-77
2022/10/21 03:24:41;;;;;;;54.80;19.85;;;;;;;;;;7394546;19;20159;-76
2022/10/21 03:27:06;;;;;;;70.03;21.02;;;;;;;;;;7390223;19;19999;-77
2022/10/21 03:29:31;;;;;;;61.72;19.75;;;;;;;;;;7391592;19;20351;-76
2022/10/21 03:31:57;;;;;;;40.17;19.58;;;;;;;;;;7387343;19;20380;-77
2022/10/21 03:34:34;;;;;;;55.35;19.33;;;;;;;;;;7392854;19;20005;-78
2022/10/21 03:37:00;;;;;;;41.83;19.58;;;;;;;;;;7394635;19;20002;-77
2022/10/21 03:39:25;;;;;;;51.55;20.15;;;;;;;;;;7392764;19;19994;-78
2022/10/21 03:41:50;;;;;;;40.78;18.20;;;;;;;;;;7387079;19;20013;-78
2022/10/21 03:44:16;;;;;;;38.65;18.70;;;;;;;;;;7390928;19;20332;-78
2022/10/21 03:46:41;;;;;;;45.95;19.20;;;;;;;;;;7391756;19;19995;-78
2022/10/21 03:49:10;;;;;;;63.65;19.55;;;;;;;;;;7391496;19;20343;-78
2022/10/21 03:51:35;;;;;;;44.00;18.23;;;;;;;;;;7388270;19;20006;-77
2022/10/21 03:54:01;;;;;;;200.68;23.17;;;;;;;;;;7392886;19;19994;-77
2022/10/21 03:56:26;;;;;;;39.30;19.92;;;;;;;;;;7387745;19;20054;-76
2022/10/21 03:58:51;;;;;;;34.50;18.30;;;;;;;;;;7389306;19;20375;-76
2022/10/21 04:01:16;;;;;;;44.33;19.35;;;;;;;;;;7390139;19;20011;-76
2022/10/21 04:03:42;;;;;;;76.35;19.05;;;;;;;;;;7388804;19;20005;-77
2022/10/21 04:06:07;;;;;;;54.75;19.17;;;;;;;;;;7390950;19;20002;-78
2022/10/21 04:08:32;;;;;;;80.28;20.02;;;;;;;;;;7389275;19;20004;-77
2022/10/21 04:11:01;;;;;;;87.00;20.17;;;;;;;;;;7392508;19;19990;-77
2022/10/21 04:13:26;;;;;;;102.55;21.60;;;;;;;;;;7393899;19;20001;-76
2022/10/21 04:16:00;;;;;;;41.83;20.80;;;;;;;;;;7389803;19;20403;-77
2022/10/21 04:18:25;;;;;;;42.97;19.75;;;;;;;;;;7390655;19;20006;-77
2022/10/21 04:20:51;;;;;;;44.33;19.75;;;;;;;;;;7390738;19;19999;-78
2022/10/21 04:23:16;;;;;;;55.65;19.65;;;;;;;;;;7393242;19;19995;-77
2022/10/21 04:25:45;;;;;;;54.97;19.98;;;;;;;;;;7394046;19;19990;-77
2022/10/21 04:28:11;;;;;;;41.17;19.05;;;;;;;;;;7394945;19;20015;-78
2022/10/21 04:30:36;;;;;;;41.00;19.20;;;;;;;;;;7389468;19;19998;-76
2022/10/21 04:33:02;;;;;;;39.35;19.88;;;;;;;;;;7388615;19;20321;-75
2022/10/21 04:35:27;;;;;;;37.67;19.27;;;;;;;;;;7390201;19;20006;-77
2022/10/21 04:37:52;;;;;;;33.85;18.38;;;;;;;;;;7387853;19;20001;-76
2022/10/21 04:40:18;;;;;;;33.92;18.08;;;;;;;;;;7388119;19;20003;-76
2022/10/21 04:42:47;;;;;;;36.58;17.17;;;;;;;;;;7386401;19;20192;-76
2022/10/21 04:45:13;;;;;;;32.90;16.75;;;;;;;;;;7386868;19;19999;-76
2022/10/21 04:47:38;;;;;;;35.60;18.95;;;;;;;;;;7391355;19;19997;-76
2022/10/21 04:50:04;;;;;;;35.40;18.70;;;;;;;;;;7390140;19;19998;-76
2022/10/21 04:52:29;;;;;;;35.95;18.20;;;;;;;;;;7388947;19;20033;-77
2022/10/21 04:54:54;;;;;;;36.42;19.15;;;;;;;;;;7390153;19;20354;-76
2022/10/21 04:57:20;;;;;;;30.48;17.80;;;;;;;;;;7389898;19;19993;-76
2022/10/21 04:59:45;;;;;;;31.27;17.70;;;;;;;;;;7393895;19;20015;-75
2022/10/21 05:02:10;;;;;;;30.23;18.05;;;;;;;;;;7391446;19;20001;-75
2022/10/21 05:04:36;;;;;;;30.88;16.08;;;;;;;;;;7391469;19;20005;-75
2022/10/21 05:07:01;;;;;;;29.38;16.65;;;;;;;;;;7392639;19;19991;-74
2022/10/21 05:09:26;;;;;;;30.23;16.45;;;;;;;;;;7392357;19;19994;-75
2022/10/21 05:11:52;;;;;;;30.85;16.85;;;;;;;;;;7389164;19;19994;-75
2022/10/21 05:14:17;;;;;;;33.45;17.80;;;;;;;;;;7384687;19;19990;-75
2022/10/21 05:16:42;;;;;;;31.40;17.02;;;;;;;;;;7381025;19;20451;-75
2022/10/21 05:19:09;;;;;;;31.05;17.40;;;;;;;;;;7390672;19;20011;-75
2022/10/21 05:21:34;;;;;;;26.58;16.42;;;;;;;;;;7383966;19;20062;-75
2022/10/21 05:24:00;;;;;;;31.27;16.42;;;;;;;;;;7390968;19;20004;-76
2022/10/21 05:26:27;;;;;;;29.48;17.08;;;;;;;;;;7394545;19;20025;-74
2022/10/21 05:28:53;;;;;;;34.15;18.90;;;;;;;;;;7393601;19;19995;-77
2022/10/21 05:31:18;;;;;;;30.73;16.27;;;;;;;;;;7387837;19;20015;-76
2022/10/21 05:33:43;;;;;;;33.65;17.52;;;;;;;;;;7392166;19;20449;-76
2022/10/21 05:36:08;;;;;;;36.65;17.95;;;;;;;;;;7406120;19;20007;-76
2022/10/21 05:38:34;;;;;;;36.63;18.00;;;;;;;;;;7412209;19;19995;-75
2022/10/21 05:40:59;;;;;;;35.90;18.35;;;;;;;;;;7406589;19;20015;-75
2022/10/21 05:43:26;;;;;;;36.92;19.10;;;;;;;;;;7407089;19;20015;-75
2022/10/21 05:45:52;;;;;;;39.97;20.30;;;;;;;;;;7409761;19;19998;-75
2022/10/21 05:48:19;;;;;;;63.75;30.92;;;;;;;;;;7399896;19;20006;-74
2022/10/21 05:50:45;;;;;;;39.78;18.80;;;;;;;;;;7391007;19;20067;-76
2022/10/21 05:53:11;;;;;;;38.75;17.90;;;;;;;;;;7390961;19;19995;-76
2022/10/21 05:55:36;;;;;;;36.20;17.88;;;;;;;;;;7399247;19;19993;-76
2022/10/21 05:58:02;;;;;;;38.55;18.40;;;;;;;;;;7397636;19;19998;-76
2022/10/21 06:00:27;;;;;;;38.25;18.85;;;;;;;;;;7397765;19;20356;-75
2022/10/21 06:02:52;;;;;;;32.50;17.77;;;;;;;;;;7394238;19;19995;-76
2022/10/21 06:05:19;;;;;;;44.17;18.75;;;;;;;;;;7393835;19;19999;-75
2022/10/21 06:07:45;;;;;;;42.10;18.98;;;;;;;;;;7386633;19;19998;-76
2022/10/21 06:10:11;;;;;;;39.30;17.98;;;;;;;;;;7396842;19;20489;-75
2022/10/21 06:12:36;;;;;;;37.20;17.90;;;;;;;;;;7396412;19;20028;-75
2022/10/21 06:15:02;;;;;;;44.13;18.23;;;;;;;;;;7396264;19;20006;-76
2022/10/21 06:17:27;;;;;;;47.55;18.38;;;;;;;;;;7395676;19;20036;-75
2022/10/21 06:19:53;;;;;;;42.67;19.45;;;;;;;;;;7395998;19;20007;-77
2022/10/21 06:22:18;;;;;;;59.13;19.42;;;;;;;;;;7396277;19;20066;-75
2022/10/21 06:24:45;;;;;;;50.22;18.85;;;;;;;;;;7396198;19;19994;-77
2022/10/21 06:27:10;;;;;;;43.78;18.83;;;;;;;;;;7394061;19;19995;-75
2022/10/21 06:29:35;;;;;;;45.15;18.73;;;;;;;;;;7395416;19;19998;-76
2022/10/21 06:32:01;;;;;;;38.95;17.80;;;;;;;;;;7394731;19;20448;-75
2022/10/21 06:34:26;;;;;;;48.13;19.00;;;;;;;;;;7401096;19;19991;-75
2022/10/21 06:36:52;;;;;;;42.00;18.00;;;;;;;;;;7399451;19;19997;-75
2022/10/21 06:39:17;;;;;;;42.63;17.88;;;;;;;;;;7395592;19;19991;-75
2022/10/21 06:41:42;;;;;;;45.42;18.55;;;;;;;;;;7394470;19;19998;-75
2022/10/21 06:44:08;;;;;;;44.78;18.48;;;;;;;;;;7395445;19;20020;-74
2022/10/21 06:46:33;;;;;;;40.95;19.25;;;;;;;;;;7396605;19;19997;-75
2022/10/21 06:48:58;;;;;;;44.17;18.75;;;;;;;;;;7397073;19;20008;-75
2022/10/21 06:51:24;;;;;;;48.72;19.50;;;;;;;;;;7393548;19;19999;-74
2022/10/21 06:53:54;;;;;;;40.53;18.50;;;;;;;;;;7396134;19;20006;-74
2022/10/21 06:56:22;;;;;;;41.92;17.98;;;;;;;;;;7394426;19;20240;-74
2022/10/21 06:58:48;;;;;;;47.65;18.50;;;;;;;;;;7397580;19;20006;-74
2022/10/21 07:01:20;;;;;;;55.78;19.15;;;;;;;;;;7392485;19;20003;-74
2022/10/21 07:03:46;;;;;;;46.15;18.48;;;;;;;;;;7395834;19;19998;-75
2022/10/21 07:06:12;;;;;;;49.42;19.52;;;;;;;;;;7394154;19;20470;-76
2022/10/21 07:08:38;;;;;;;45.75;18.95;;;;;;;;;;7397447;19;20023;-76
2022/10/21 07:11:05;;;;;;;47.60;18.85;;;;;;;;;;7392083;19;20031;-75
2022/10/21 07:13:31;;;;;;;46.63;18.05;;;;;;;;;;7394975;19;20127;-74
2022/10/21 07:16:05;;;;;;;42.03;18.13;;;;;;;;;;7395786;19;20011;-74
2022/10/21 07:18:31;;;;;;;49.03;19.38;;;;;;;;;;7397524;19;20018;-72
2022/10/21 07:21:11;;;;;;;39.50;17.10;;;;;;;;;;7392380;19;19998;-74
2022/10/21 07:23:36;;;;;;;43.25;18.63;;;;;;;;;;7394940;19;20014;-74
2022/10/21 07:26:03;;;;;;;43.70;18.50;;;;;;;;;;7394637;19;19998;-75
2022/10/21 07:28:28;;;;;;;49.25;18.38;;;;;;;;;;7396819;19;19999;-75
2022/10/21 07:30:54;;;;;;;39.42;18.88;;;;;;;;;;7391731;19;20372;-74
2022/10/21 07:33:19;;;;;;;61.75;31.17;;;;;;;;;;7390948;19;19999;-75
2022/10/21 07:35:44;;;;;;;45.50;20.02;;;;;;;;;;7393568;19;19990;-74
2022/10/21 07:38:11;;;;;;;47.20;19.35;;;;;;;;;;7392661;19;19994;-73
2022/10/21 07:40:41;;;;;;;47.95;18.92;;;;;;;;;;7395069;19;20003;-75
2022/10/21 07:43:07;;;;;;;45.15;18.90;;;;;;;;;;7393865;19;20001;-74
2022/10/21 07:45:33;;;;;;;43.65;18.08;;;;;;;;;;7393500;19;19998;-73
2022/10/21 07:47:58;;;;;;;37.33;16.55;;;;;;;;;;7394067;19;19991;-74
2022/10/21 07:50:24;;;;;;;42.85;17.17;;;;;;;;;;7394322;19;20044;-72
2022/10/21 07:52:49;;;;;;;40.90;17.77;;;;;;;;;;7390951;19;19998;-73
2022/10/21 07:55:16;;;;;;;36.63;17.05;;;;;;;;;;7394451;19;19994;-75
2022/10/21 07:57:42;;;;;;;40.58;16.83;;;;;;;;;;7368179;19;20031;-74
2022/10/21 08:00:08;;;;;;;32.05;15.90;;;;;;;;;;7391624;19;20003;-73
2022/10/21 08:02:34;;;;;;;34.80;15.93;;;;;;;;;;7392691;19;20062;-75
2022/10/21 08:04:59;;;;;;;69.80;38.55;;;;;;;;;;7390308;19;20002;-74
2022/10/21 08:07:25;;;;;;;33.40;16.60;;;;;;;;;;7391332;19;20114;-74
2022/10/21 08:09:50;;;;;;;32.72;15.40;;;;;;;;;;7392622;19;20035;-74
2022/10/21 08:12:16;;;;;;;32.05;15.40;;;;;;;;;;7392025;19;20050;-75
2022/10/21 08:14:41;;;;;;;28.58;15.00;;;;;;;;;;7394721;19;19999;-75
2022/10/21 08:17:07;;;;;;;28.25;14.50;;;;;;;;;;7388674;19;20005;-75
2022/10/21 08:19:32;;;;;;;30.33;14.40;;;;;;;;;;7390328;19;19995;-74
2022/10/21 08:21:58;;;;;;;29.58;14.82;;;;;;;;;;7390322;19;20029;-74
2022/10/21 08:24:24;;;;;;;30.70;14.18;;;;;;;;;;7390394;19;20056;-75
2022/10/21 08:26:50;;;;;;;25.45;13.88;;;;;;;;;;7392101;19;20528;-76
2022/10/21 08:29:16;;;;;;;25.98;14.80;;;;;;;;;;7389614;19;20460;-74
2022/10/21 08:31:41;;;;;;;34.22;14.93;;;;;;;;;;7389469;19;20112;-74
2022/10/21 08:34:07;;;;;;;28.75;14.32;;;;;;;;;;7392997;19;19998;-74
2022/10/21 08:36:32;;;;;;;26.75;13.55;;;;;;;;;;7388965;19;19998;-75
2022/10/21 08:38:58;;;;;;;26.90;13.70;;;;;;;;;;7390587;19;20581;-74
2022/10/21 08:41:30;;;;;;;27.23;14.27;;;;;;;;;;7390298;19;19998;-75
2022/10/21 08:44:03;;;;;;;30.33;14.05;;;;;;;;;;7391948;19;20039;-74
2022/10/21 08:46:38;;;;;;;26.58;13.93;;;;;;;;;;7393463;19;19991;-75
2022/10/21 08:49:06;;;;;;;30.58;14.27;;;;;;;;;;7389362;19;20012;-74
2022/10/21 08:51:41;;;;;;;26.45;13.07;;;;;;;;;;7386906;19;20342;-73
2022/10/21 08:54:38;;;;;;;26.75;13.57;;;;;;;;;;7391955;19;19991;-74
2022/10/21 08:57:04;;;;;;;23.58;12.77;;;;;;;;;;7390232;19;20003;-75
2022/10/21 08:59:29;;;;;;;33.67;13.88;;;;;;;;;;7390821;19;19994;-74
2022/10/21 09:01:54;;;;;;;25.75;14.15;;;;;;;;;;7388746;19;20064;-74
2022/10/21 09:04:38;;;;;;;21.98;13.32;;;;;;;;;;7390541;19;20018;-74
2022/10/21 09:07:18;;;;;;;26.83;13.30;;;;;;;;;;7388964;19;19999;-76
2022/10/21 09:09:59;;;;;;;34.47;14.20;;;;;;;;;;7391072;19;20005;-74
2022/10/21 09:12:33;;;;;;;26.58;12.95;;;;;;;;;;7391838;19;20021;-74
2022/10/21 09:15:07;;;;;;;23.38;12.50;;;;;;;;;;7390550;19;19995;-75
2022/10/21 09:18:11;;;;;;;33.63;15.55;;;;;;;;;;7388410;19;20005;-74
2022/10/21 09:21:04;;;;;;;27.13;13.90;;;;;;;;;;7386643;19;19994;-76
2022/10/21 09:24:02;;;;;;;24.13;13.10;;;;;;;;;;7390530;19;20108;-74
2022/10/21 09:26:40;;;;;;;26.60;13.05;;;;;;;;;;7388664;19;20021;-75
2022/10/21 09:29:18;;;;;;;26.95;13.40;;;;;;;;;;7388221;19;20010;-75
2022/10/21 09:31:44;;;;;;;23.90;12.68;;;;;;;;;;7386780;19;20361;-74
2022/10/21 09:34:51;;;;;;;24.13;13.07;;;;;;;;;;7391345;19;20005;-77
2022/10/21 09:37:48;;;;;;;23.15;12.35;;;;;;;;;;7388941;19;19999;-75
2022/10/21 09:40:22;;;;;;;29.48;13.38;;;;;;;;;;7388984;19;20003;-75
2022/10/21 09:42:50;;;;;;;22.90;13.20;;;;;;;;;;7387527;19;20017;-75
2022/10/21 09:45:43;;;;;;;26.05;13.68;;;;;;;;;;7393132;19;20369;-75
2022/10/21 09:48:17;;;;;;;27.27;13.30;;;;;;;;;;7402605;19;20011;-73
2022/10/21 09:50:50;;;;;;;25.90;14.38;;;;;;;;;;7397129;19;19994;-75
2022/10/21 09:53:26;;;;;;;22.85;12.70;;;;;;;;;;7388512;19;20460;-74
2022/10/21 09:55:57;;;;;;;26.27;12.50;;;;;;;;;;7389511;19;20025;-75
2022/10/21 09:58:29;;;;;;;19.73;11.82;;;;;;;;;;7391005;19;20003;-73
2022/10/21 10:00:55;;;;;;;24.50;10.77;;;;;;;;;;7390341;19;20019;-73
2022/10/21 10:03:33;;;;;;;22.38;11.23;;;;;;;;;;7387335;19;20006;-73
2022/10/21 10:05:59;;;;;;;19.13;10.02;;;;;;;;;;7389987;19;19998;-73
2022/10/21 10:08:38;;;;;;;24.08;9.60;;;;;;;;;;7388126;19;20013;-74
2022/10/21 10:11:20;;;;;;;17.42;9.10;;;;;;;;;;7386562;19;19998;-74
2022/10/21 10:13:50;;;;;;;17.55;9.73;;;;;;;;;;7389125;19;20002;-75
2022/10/21 10:16:25;;;;;;;14.73;8.98;;;;;;;;;;7367444;19;20006;-75
2022/10/21 10:18:52;;;;;;;13.98;8.10;;;;;;;;;;7388161;19;20077;-75
2022/10/21 10:21:20;;;;;;;14.07;8.00;;;;;;;;;;7382903;19;19998;-74
2022/10/21 10:23:54;;;;;;;11.23;7.60;;;;;;;;;;7390405;19;20062;-74
2022/10/21 10:26:29;;;;;;;14.48;6.78;;;;;;;;;;7388942;19;20361;-74
2022/10/21 10:28:59;;;;;;;11.43;6.60;;;;;;;;;;7388112;19;20503;-74
2022/10/21 10:31:28;;;;;;;13.20;6.25;;;;;;;;;;7385371;19;20103;-74
2022/10/21 10:33:59;;;;;;;9.77;5.70;;;;;;;;;;7388588;19;20407;-74
2022/10/21 10:36:28;;;;;;;13.68;5.03;;;;;;;;;;7390136;19;20011;-74
2022/10/21 10:38:56;;;;;;;10.63;5.20;;;;;;;;;;7384297;19;20002;-76
2022/10/21 10:41:29;;;;;;;8.85;5.10;;;;;;;;;;7388871;19;20082;-75
2022/10/21 10:43:56;;;;;;;8.02;4.40;;;;;;;;;;7396708;19;20002;-76
2022/10/21 10:46:24;;;;;;;8.32;4.72;;;;;;;;;;7390015;19;20006;-74
2022/10/21 10:48:52;;;;;;;8.80;4.43;;;;;;;;;;7391401;19;20537;-75
2022/10/21 10:51:31;;;;;;;7.90;4.15;;;;;;;;;;7388961;19;20005;-75
2022/10/21 10:54:05;;;;;;;7.35;4.10;;;;;;;;;;7394145;19;20458;-76
2022/10/21 10:56:37;;;;;;;8.43;4.45;;;;;;;;;;7394342;19;19998;-76
2022/10/21 10:59:11;;;;;;;8.43;4.22;;;;;;;;;;7391241;19;20083;-75
2022/10/21 11:01:45;;;;;;;7.90;3.70;;;;;;;;;;7390862;19;19998;-75
2022/10/21 11:04:24;;;;;;;7.22;3.90;;;;;;;;;;7393211;19;20074;-77
2022/10/21 11:06:56;;;;;;;7.13;3.85;;;;;;;;;;7391448;19;20400;-75
2022/10/21 11:09:23;;;;;;;6.68;3.92;;;;;;;;;;7392407;19;20002;-75
2022/10/21 11:11:53;;;;;;;7.03;4.03;;;;;;;;;;7393043;19;20081;-76
2022/10/21 11:14:19;;;;;;;6.70;4.03;;;;;;;;;;7394933;19;19998;-76
2022/10/21 11:17:04;;;;;;;6.25;3.70;;;;;;;;;;7396313;19;20050;-76
2022/10/21 11:19:41;;;;;;;6.10;3.55;;;;;;;;;;7391890;19;20078;-75
2022/10/21 11:22:24;;;;;;;6.10;3.72;;;;;;;;;;7390372;19;20337;-75
2022/10/21 11:25:21;;;;;;;6.20;3.50;;;;;;;;;;7388817;19;19998;-76
2022/10/21 11:28:10;;;;;;;8.52;4.13;;;;;;;;;;7389796;19;19994;-76
2022/10/21 11:30:41;;;;;;;7.85;3.88;;;;;;;;;;7388108;19;20061;-77
2022/10/21 11:33:45;;;;;;;6.70;3.40;;;;;;;;;;7391362;19;20034;-76
2022/10/21 11:36:34;;;;;;;8.57;3.40;;;;;;;;;;7392753;19;19998;-76
2022/10/21 11:39:18;;;;;;;6.50;3.40;;;;;;;;;;7389873;19;20495;-76
2022/10/21 11:42:02;;;;;;;4.70;2.67;;;;;;;;;;7392437;19;19998;-76
2022/10/21 11:44:37;;;;;;;5.95;2.80;;;;;;;;;;7393810;19;20066;-76
2022/10/21 11:47:18;;;;;;;4.22;2.60;;;;;;;;;;7391782;19;19998;-75
2022/10/21 11:50:08;;;;;;;4.80;2.53;;;;;;;;;;7391272;19;20019;-76
2022/10/21 11:52:58;;;;;;;7.10;2.40;;;;;;;;;;7392358;19;20013;-75
2022/10/21 11:55:45;;;;;;;4.57;2.05;;;;;;;;;;7390644;19;19999;-77
2022/10/21 11:58:28;;;;;;;2.80;1.70;;;;;;;;;;7392323;19;20356;-76
2022/10/21 12:01:09;;;;;;;4.97;2.17;;;;;;;;;;7389581;19;19990;-76
2022/10/21 12:03:42;;;;;;;4.78;1.95;;;;;;;;;;7392501;19;20460;-76
2022/10/21 12:06:37;;;;;;;2.83;2.00;;;;;;;;;;7393765;19;20029;-75
2022/10/21 12:09:11;;;;;;;4.32;2.30;;;;;;;;;;7391205;19;20099;-77
2022/10/21 12:11:42;;;;;;;5.93;2.53;;;;;;;;;;7391830;19;20436;-76
2022/10/21 12:14:28;;;;;;;5.88;2.70;;;;;;;;;;7392945;19;19998;-76
2022/10/21 12:16:56;;;;;;;3.92;1.90;;;;;;;;;;7391169;19;20402;-75
2022/10/21 12:19:23;;;;;;;5.53;1.92;;;;;;;;;;7391152;19;20458;-77
2022/10/21 12:21:48;;;;;;;2.10;1.42;;;;;;;;;;7392029;19;20502;-77
2022/10/21 12:24:32;;;;;;;1.73;1.15;;;;;;;;;;7390358;19;19995;-79
2022/10/21 12:27:17;;;;;;;1.00;0.93;;;;;;;;;;7391352;19;19990;-76
2022/10/21 12:30:05;;;;;;;1.50;1.23;;;;;;;;;;7390753;19;20022;-76
2022/10/21 12:32:52;;;;;;;2.58;1.25;;;;;;;;;;7392197;19;19990;-76
2022/10/21 12:35:41;;;;;;;3.38;1.50;;;;;;;;;;7385564;19;19995;-78
2022/10/21 12:38:20;;;;;;;1.92;1.33;;;;;;;;;;7386600;19;19995;-79
2022/10/21 12:40:47;;;;;;;3.13;1.50;;;;;;;;;;7391948;19;19995;-77
2022/10/21 12:43:26;;;;;;;1.60;1.17;;;;;;;;;;7391048;19;20329;-78
2022/10/21 12:46:06;;;;;;;2.35;1.40;;;;;;;;;;7390229;19;19995;-79
2022/10/21 12:48:42;;;;;;;;;;;;;;;;;;7391811;19;20005;-76
2022/10/21 12:51:20;;;;;;;4.45;1.58;;;;;;;;;;7388961;19;19910;-76
2022/10/21 12:53:49;;;;;;;5.10;0.90;;;;;;;;;;7390055;19;19995;-77
2022/10/21 12:56:32;;;;;;;1.80;0.95;;;;;;;;;;7391914;19;19998;-77
2022/10/21 12:59:02;;;;;;;1.27;1.00;;;;;;;;;;7388904;19;20036;-78
2022/10/21 13:01:39;;;;;;;1.80;1.27;;;;;;;;;;7388444;19;20002;-78
2022/10/21 13:04:31;;;;;;;5.35;1.30;;;;;;;;;;7389061;19;20015;-76
2022/10/21 13:07:01;;;;;;;1.58;1.08;;;;;;;;;;7386859;19;20018;-76
2022/10/21 13:10:01;;;;;;;2.75;1.23;;;;;;;;;;7390356;19;20017;-76
2022/10/21 13:12:30;;;;;;;1.98;1.25;;;;;;;;;;7386304;19;20017;-75
2022/10/21 13:14:58;;;;;;;2.63;1.10;;;;;;;;;;7391432;19;20005;-78
2022/10/21 13:17:42;;;;;;;3.25;1.10;;;;;;;;;;7388319;19;20347;-77
2022/10/21 13:20:13;;;;;;;1.27;1.10;;;;;;;;;;7387515;19;20007;-77
2022/10/21 13:22:41;;;;;;;3.20;1.42;;;;;;;;;;7389995;19;20049;-75
2022/10/21 13:25:26;;;;;;;2.47;1.13;;;;;;;;;;7387681;19;20031;-75
2022/10/21 13:28:16;;;;;;;2.33;1.38;;;;;;;;;;7388647;19;20010;-76
2022/10/21 13:30:47;;;;;;;2.20;1.40;;;;;;;;;;7388911;19;19998;-75
2022/10/21 13:33:19;;;;;;;2.25;1.17;;;;;;;;;;7389758;19;19995;-76
2022/10/21 13:35:50;;;;;;;1.73;1.10;;;;;;;;;;7390527;19;20001;-77
2022/10/21 13:38:25;;;;;;;2.15;1.52;;;;;;;;;;7391273;19;20007;-76
2022/10/21 13:40:54;;;;;;;5.85;1.50;;;;;;;;;;7384641;19;20361;-76
2022/10/21 13:43:28;;;;;;;4.03;1.42;;;;;;;;;;7387695;19;20017;-74
2022/10/21 13:46:14;;;;;;;1.52;1.15;;;;;;;;;;7389041;19;20007;-74
2022/10/21 13:48:43;;;;;;;1.83;1.35;;;;;;;;;;7391684;19;20007;-74
2022/10/21 13:51:26;;;;;;;2.85;1.48;;;;;;;;;;7389354;19;20494;-75
2022/10/21 13:53:55;;;;;;;2.60;1.40;;;;;;;;;;7389617;19;20003;-76
2022/10/21 13:56:27;;;;;;;2.47;1.08;;;;;;;;;;7389265;19;20009;-74
2022/10/21 13:58:52;;;;;;;3.13;1.58;;;;;;;;;;7385495;19;20058;-75
2022/10/21 14:01:21;;;;;;;3.10;1.42;;;;;;;;;;7389251;19;20002;-74
2022/10/21 14:03:53;;;;;;;3.65;1.55;;;;;;;;;;7386506;19;20003;-74
2022/10/21 14:06:35;;;;;;;2.42;1.38;;;;;;;;;;7385153;19;20105;-74
2022/10/21 14:09:06;;;;;;;1.77;1.33;;;;;;;;;;7384521;19;20429;-75
2022/10/21 14:11:39;;;;;;;3.10;1.92;;;;;;;;;;7383505;19;20003;-74
2022/10/21 14:14:07;;;;;;;4.35;2.30;;;;;;;;;;7386680;19;20090;-74
2022/10/21 14:16:36;;;;;;;5.18;1.85;;;;;;;;;;7393439;19;20022;-75
2022/10/21 14:19:07;;;;;;;6.88;2.10;;;;;;;;;;7391858;19;20480;-75
2022/10/21 14:21:35;;;;;;;;;;;;;;;;;;7393732;19;20009;-76
2022/10/21 14:24:01;;;;;;;2.03;1.42;;;;;;;;;;7396526;19;19919;-75
2022/10/21 14:26:30;;;;;;;1.80;1.42;;;;;;;;;;7394939;19;20441;-76
2022/10/21 14:28:59;;;;;;;3.38;1.80;;;;;;;;;;7394054;19;20010;-75
2022/10/21 14:31:25;;;;;;;4.88;1.70;;;;;;;;;;7396574;19;20006;-74
2022/10/21 14:33:50;;;;;;;4.22;2.10;;;;;;;;;;7396432;19;20037;-74
2022/10/21 14:36:24;;;;;;;3.75;1.90;;;;;;;;;;7396718;19;20003;-75
2022/10/21 14:39:06;;;;;;;3.47;1.50;;;;;;;;;;7392001;19;20714;-75
2022/10/21 14:41:38;;;;;;;2.45;1.50;;;;;;;;;;7394264;19;20003;-76
2022/10/21 14:44:13;;;;;;;3.78;1.85;;;;;;;;;;7396932;19;20002;-75
2022/10/21 14:46:48;;;;;;;4.53;1.77;;;;;;;;;;7395940;19;20036;-75
2022/10/21 14:49:27;;;;;;;4.57;2.15;;;;;;;;;;7394048;19;20002;-75